Terminal Aerodrome Forecast
Issued by NWS

Home | Current Version | Previous Version | Text Only | Print | Product List | Glossary Off
Versions: 1 2 3 4 5 6 7 8 9 10 11 12 13 14 15 16 17 18 19 20 21 22

563
FTUS43 KBIS 270520
TAFMOT
TAF
KMOT 270520Z 2706/2806 26005KT P6SM BKN040
     FM271500 35006KT P6SM OVC030
     FM271900 03008KT 2SM -SN OVC010
     FM272000 02009KT 1 1/2SM -SN OVC010
     FM272300 02008KT P6SM VCSH OVC010
     FM280100 02008KT P6SM OVC015=

USA.gov is the U.S. government's official web portal to all federal, state and local government web resources and services.